createdAt,value
2022-11-15T00:01:56.563Z,46.07
2022-11-15T00:05:02.027Z,45.20
2022-11-15T00:08:07.802Z,43.57
2022-11-15T00:11:14.672Z,47.43
2022-11-15T00:14:21.373Z,36.20
2022-11-15T00:17:26.971Z,43.93
2022-11-15T00:20:32.621Z,50.43
2022-11-15T00:23:38.439Z,37.50
2022-11-15T00:26:44.068Z,39.67
2022-11-15T00:29:51.190Z,34.40
2022-11-15T00:32:56.786Z,43.07
2022-11-15T00:36:03.601Z,37.97
2022-11-15T00:39:09.360Z,41.17
2022-11-15T00:42:15.176Z,40.57
2022-11-15T00:45:23.130Z,47.03
2022-11-15T00:48:28.847Z,41.60
2022-11-15T00:51:34.159Z,44.23
2022-11-15T00:54:39.822Z,48.67
2022-11-15T00:57:45.712Z,48.80
2022-11-15T01:00:52.703Z,44.77
2022-11-15T01:04:01.310Z,48.73
2022-11-15T01:07:06.952Z,49.23
2022-11-15T01:10:12.607Z,44.03
2022-11-15T01:13:18.149Z,42.97
2022-11-15T01:16:25.464Z,47.13
2022-11-15T01:19:31.173Z,46.40
2022-11-15T01:22:36.613Z,48.70
2022-11-15T01:25:42.287Z,45.27
2022-11-15T01:28:48.083Z,47.80
2022-11-15T01:31:59.460Z,43.33
2022-11-15T01:35:06.239Z,44.03
2022-11-15T01:38:11.964Z,45.53
2022-11-15T01:41:19.924Z,50.07
2022-11-15T01:44:41.804Z,49.53
2022-11-15T01:47:54.422Z,45.63
2022-11-15T01:51:00.457Z,46.57
2022-11-15T01:54:10.536Z,46.43
2022-11-15T01:57:16.376Z,43.03
2022-11-15T02:00:22.274Z,45.07
2022-11-15T02:03:36.278Z,45.33
2022-11-15T02:06:43.241Z,47.43
2022-11-15T02:09:49.077Z,48.47
2022-11-15T02:12:56.380Z,47.00
2022-11-15T02:16:11.348Z,48.23
2022-11-15T02:19:31.815Z,50.00
2022-11-15T02:22:52.087Z,48.67
2022-11-15T02:26:19.335Z,45.97
2022-11-15T02:29:37.628Z,46.30
2022-11-15T02:32:50.005Z,49.37
2022-11-15T02:36:02.114Z,50.33
2022-11-15T02:39:13.158Z,47.17
2022-11-15T02:42:41.441Z,50.27
2022-11-15T02:45:50.669Z,44.43
2022-11-15T02:48:58.254Z,46.43
2022-11-15T02:52:04.275Z,48.97
2022-11-15T02:55:28.622Z,48.00
2022-11-15T02:58:59.470Z,44.80
2022-11-15T03:02:18.872Z,53.47
2022-11-15T03:05:31.889Z,45.67
2022-11-15T03:08:48.102Z,50.70
2022-11-15T03:12:01.343Z,43.73
2022-11-15T03:15:13.102Z,44.20
2022-11-15T03:18:23.732Z,48.60
2022-11-15T03:21:33.712Z,49.97
2022-11-15T03:24:40.933Z,46.87
2022-11-15T03:27:51.714Z,46.57
2022-11-15T03:30:58.932Z,47.30
2022-11-15T03:34:09.771Z,41.10
2022-11-15T03:37:18.496Z,39.13
2022-11-15T03:40:39.215Z,41.33
2022-11-15T03:43:53.048Z,44.97
2022-11-15T03:47:05.610Z,40.43
2022-11-15T03:50:14.624Z,46.37
2022-11-15T03:53:21.629Z,40.57
2022-11-15T03:56:27.078Z,39.17
2022-11-15T03:59:32.190Z,40.13
2022-11-15T04:02:37.399Z,41.93
2022-11-15T04:05:42.753Z,48.70
2022-11-15T04:08:49.428Z,40.20
2022-11-15T04:11:55.550Z,42.63
2022-11-15T04:15:09.559Z,47.17
2022-11-15T04:18:15.186Z,43.73
2022-11-15T04:21:38.087Z,43.53
2022-11-15T04:24:45.355Z,47.13
2022-11-15T04:27:50.868Z,40.13
2022-11-15T04:30:56.700Z,43.73
2022-11-15T04:34:02.399Z,46.30
2022-11-15T04:37:17.218Z,56.80
2022-11-15T04:40:24.288Z,45.57
2022-11-15T04:43:30.422Z,46.80
2022-11-15T04:46:38.431Z,44.40
2022-11-15T04:49:45.117Z,45.27
2022-11-15T04:52:54.045Z,45.17
2022-11-15T04:56:00.701Z,50.57
2022-11-15T04:59:06.660Z,48.30
2022-11-15T05:02:12.632Z,49.40
2022-11-15T05:05:20.115Z,50.70
2022-11-15T05:08:26.179Z,44.43
2022-11-15T05:11:33.651Z,48.90
2022-11-15T05:14:41.271Z,50.93
2022-11-15T05:17:50.458Z,49.27
2022-11-15T05:20:56.067Z,43.63
2022-11-15T05:24:01.948Z,50.93
2022-11-15T05:27:08.811Z,38.53
2022-11-15T05:30:14.803Z,44.77
2022-11-15T05:33:20.750Z,41.83
2022-11-15T05:36:33.816Z,43.83
2022-11-15T05:39:39.404Z,41.53
2022-11-15T05:42:47.764Z,41.97
2022-11-15T05:45:53.364Z,43.40
2022-11-15T05:48:59.936Z,41.53
2022-11-15T05:52:09.349Z,38.30
2022-11-15T05:55:15.962Z,33.23
2022-11-15T05:58:22.940Z,36.23
2022-11-15T06:01:29.338Z,31.60
2022-11-15T06:04:34.769Z,38.67
2022-11-15T06:07:40.373Z,33.67
2022-11-15T06:10:45.902Z,36.90
2022-11-15T06:13:53.294Z,33.37
2022-11-15T06:16:59.007Z,31.73
2022-11-15T06:20:05.499Z,33.63
2022-11-15T06:23:11.171Z,40.63
2022-11-15T06:26:16.544Z,35.27
2022-11-15T06:29:29.763Z,40.73
2022-11-15T06:32:35.885Z,34.57
2022-11-15T06:35:44.550Z,40.07
2022-11-15T06:38:50.436Z,44.60
2022-11-15T06:41:57.495Z,37.87
2022-11-15T06:45:05.070Z,43.97
2022-11-15T06:48:10.724Z,39.23
2022-11-15T06:51:16.361Z,38.77
2022-11-15T06:54:23.425Z,40.80
2022-11-15T06:57:28.875Z,45.43
2022-11-15T07:00:35.883Z,52.43
2022-11-15T07:03:43.460Z,49.67
2022-11-15T07:06:49.586Z,45.27
2022-11-15T07:09:54.710Z,50.23
2022-11-15T07:13:00.287Z,46.93
2022-11-15T07:16:09.791Z,46.73
2022-11-15T07:19:15.457Z,43.60
2022-11-15T07:22:21.065Z,39.40
2022-11-15T07:25:26.789Z,38.87
2022-11-15T07:28:32.560Z,36.53
2022-11-15T07:31:40.067Z,45.37
2022-11-15T07:34:47.702Z,45.70
2022-11-15T07:37:57.643Z,48.47
2022-11-15T07:41:05.041Z,43.27
2022-11-15T07:44:10.515Z,46.50
2022-11-15T07:47:17.607Z,42.77
2022-11-15T07:50:23.817Z,44.60
2022-11-15T07:53:29.744Z,47.93
2022-11-15T07:56:35.428Z,38.23
2022-11-15T07:59:41.035Z,46.33
2022-11-15T08:02:48.268Z,44.90
2022-11-15T08:05:54.062Z,52.20
2022-11-15T08:08:59.521Z,53.63
2022-11-15T08:12:04.892Z,47.40
2022-11-15T08:15:11.399Z,47.67
2022-11-15T08:18:18.765Z,42.83
2022-11-15T08:21:24.966Z,51.87
2022-11-15T08:24:30.398Z,56.27
2022-11-15T08:27:36.275Z,51.00
2022-11-15T08:30:46.475Z,50.27
2022-11-15T08:33:53.640Z,47.77
2022-11-15T08:36:59.544Z,46.00
2022-11-15T08:40:06.147Z,49.80
2022-11-15T08:43:11.563Z,44.70
2022-11-15T08:46:17.734Z,39.33
2022-11-15T08:49:24.526Z,48.10
2022-11-15T08:52:30.155Z,44.57
2022-11-15T08:55:38.583Z,43.80
2022-11-15T08:58:44.714Z,48.07
2022-11-15T09:01:50.229Z,40.47
2022-11-15T09:04:57.399Z,43.73
2022-11-15T09:08:18.790Z,45.17
2022-11-15T09:11:28.475Z,42.30
2022-11-15T09:14:34.593Z,45.97
2022-11-15T09:17:40.261Z,41.63
2022-11-15T09:20:47.130Z,45.70
2022-11-15T09:23:53.982Z,42.50
2022-11-15T09:26:59.854Z,49.27
2022-11-15T09:30:06.735Z,50.50
2022-11-15T09:33:14.181Z,44.73
2022-11-15T09:36:20.942Z,42.07
2022-11-15T09:39:26.235Z,46.77
2022-11-15T09:42:47.722Z,39.77
2022-11-15T09:46:04.139Z,41.07
2022-11-15T09:49:14.241Z,40.73
2022-11-15T09:52:15.677Z,42.27
2022-11-15T09:55:02.359Z,43.53
2022-11-15T09:57:54.394Z,43.37
2022-11-15T10:00:47.190Z,44.43
2022-11-15T10:03:37.544Z,36.10
2022-11-15T10:06:26.874Z,41.37
2022-11-15T10:09:23.850Z,42.23
2022-11-15T10:12:11.866Z,40.93
2022-11-15T10:15:03.272Z,36.37
2022-11-15T10:18:20.155Z,38.77
2022-11-15T10:21:17.604Z,36.67
2022-11-15T10:24:04.144Z,34.77
2022-11-15T10:26:57.335Z,35.97
2022-11-15T10:29:46.577Z,31.17
2022-11-15T10:32:38.328Z,31.20
2022-11-15T10:35:27.930Z,31.03
2022-11-15T10:38:14.903Z,34.10
2022-11-15T10:41:09.971Z,31.83
2022-11-15T10:44:26.821Z,31.60
2022-11-15T10:47:28.818Z,31.53
2022-11-15T10:50:30.163Z,32.47
2022-11-15T10:53:23.265Z,27.53
2022-11-15T10:56:14.459Z,33.60
2022-11-15T10:59:00.961Z,27.90
2022-11-15T11:01:50.391Z,28.20
2022-11-15T11:04:51.977Z,31.30
2022-11-15T11:07:38.990Z,29.97
2022-11-15T11:13:33.701Z,30.50
2022-11-15T11:16:39.139Z,34.77
2022-11-15T11:19:51.990Z,24.33
2022-11-15T11:22:50.392Z,29.57
2022-11-15T11:25:42.091Z,27.67
2022-11-15T11:28:43.526Z,25.90
2022-11-15T11:31:38.087Z,29.07
2022-11-15T11:34:38.901Z,28.60
2022-11-15T11:37:36.132Z,25.70
2022-11-15T11:40:31.939Z,27.60
2022-11-15T11:43:29.059Z,23.80
2022-11-15T11:46:29.358Z,33.50
2022-11-15T11:49:22.710Z,27.73
2022-11-15T11:52:18.067Z,25.53
2022-11-15T11:55:16.838Z,26.77
2022-11-15T11:58:13.524Z,28.53
2022-11-15T12:01:12.520Z,24.93
2022-11-15T12:04:03.599Z,29.10
2022-11-15T12:06:54.505Z,27.73
2022-11-15T12:09:46.612Z,23.93
2022-11-15T12:12:43.597Z,30.07
2022-11-15T12:15:35.425Z,27.50
2022-11-15T12:18:22.070Z,26.70
2022-11-15T12:21:28.109Z,29.43
2022-11-15T12:24:22.137Z,32.40
2022-11-15T12:27:21.940Z,26.87
2022-11-15T12:30:16.539Z,26.47
2022-11-15T12:33:03.939Z,28.53
2022-11-15T12:36:00.446Z,25.63
2022-11-15T12:38:59.198Z,25.60
2022-11-15T12:42:41.500Z,24.07
2022-11-15T12:45:32.467Z,25.63
2022-11-15T12:48:47.560Z,24.30
2022-11-15T12:52:09.064Z,26.03
2022-11-15T12:55:01.317Z,25.53
2022-11-15T12:57:48.041Z,23.37
2022-11-15T13:00:48.346Z,26.30
2022-11-15T13:03:35.777Z,26.30
2022-11-15T13:06:42.076Z,23.50
2022-11-15T13:09:57.321Z,24.87
2022-11-15T13:12:56.266Z,24.63
2022-11-15T13:15:57.993Z,24.73
2022-11-15T13:18:44.561Z,20.40
2022-11-15T13:21:48.787Z,26.27
2022-11-15T13:24:35.475Z,23.43
2022-11-15T13:27:22.777Z,23.47
2022-11-15T13:30:18.009Z,24.30
2022-11-15T13:33:12.968Z,22.87
2022-11-15T13:36:03.095Z,25.40
2022-11-15T13:38:58.879Z,22.87
2022-11-15T13:41:50.227Z,20.27
2022-11-15T13:44:36.889Z,17.87
2022-11-15T13:47:23.702Z,20.10
2022-11-15T13:50:14.900Z,20.10
2022-11-15T13:53:05.200Z,16.73
2022-11-15T13:55:53.620Z,19.73
2022-11-15T13:58:41.376Z,17.40
2022-11-15T14:01:34.092Z,17.63
2022-11-15T14:04:23.748Z,18.93
2022-11-15T14:07:19.293Z,20.50
2022-11-15T14:10:26.833Z,17.23
2022-11-15T14:13:29.894Z,17.97
2022-11-15T14:16:19.818Z,24.07
2022-11-15T14:19:08.079Z,22.07
2022-11-15T14:22:12.491Z,19.13
2022-11-15T14:25:18.890Z,24.43
2022-11-15T14:28:18.261Z,18.13
2022-11-15T14:31:12.836Z,19.83
2022-11-15T14:33:59.605Z,19.27
2022-11-15T14:36:46.371Z,21.73
2022-11-15T14:39:33.184Z,20.87
2022-11-15T14:42:22.523Z,20.07
2022-11-15T14:45:14.204Z,17.37
2022-11-15T14:48:01.054Z,20.43
2022-11-15T14:50:47.842Z,18.73
2022-11-15T14:53:34.742Z,19.43
2022-11-15T14:56:21.486Z,22.33
2022-11-15T14:59:09.604Z,19.93
2022-11-15T15:01:56.511Z,19.90
2022-11-15T15:04:42.962Z,21.83
2022-11-15T15:07:29.974Z,21.30
2022-11-15T15:10:39.022Z,24.10
2022-11-15T15:13:26.402Z,28.03
2022-11-15T15:16:14.718Z,21.77
2022-11-15T15:19:01.379Z,25.13
2022-11-15T15:21:48.098Z,23.57
2022-11-15T15:24:34.725Z,21.13
2022-11-15T15:27:22.271Z,22.80
2022-11-15T15:30:10.625Z,25.03
2022-11-15T15:33:00.960Z,22.33
2022-11-15T15:35:47.517Z,25.43
2022-11-15T15:38:34.937Z,25.13
2022-11-15T15:41:22.360Z,26.13
2022-11-15T15:44:08.988Z,27.57
2022-11-15T15:46:55.529Z,31.33
2022-11-15T15:49:44.816Z,30.13
2022-11-15T15:52:32.604Z,33.73
2022-11-15T15:55:19.158Z,34.17
2022-11-15T15:58:08.099Z,37.77
2022-11-15T16:00:56.757Z,38.27
2022-11-15T16:03:43.340Z,35.20
2022-11-15T16:06:39.747Z,44.07
2022-11-15T16:09:41.558Z,42.63
2022-11-15T16:12:28.368Z,36.87
2022-11-15T16:15:16.730Z,35.50
2022-11-15T16:18:09.118Z,37.90
2022-11-15T16:20:58.261Z,45.87
2022-11-15T16:23:47.700Z,46.17
2022-11-15T16:26:38.158Z,51.07
2022-11-15T16:29:26.301Z,50.30
2022-11-15T16:32:18.946Z,53.03
2022-11-15T16:35:09.628Z,52.80
2022-11-15T16:37:57.948Z,54.33
2022-11-15T16:40:50.631Z,46.10
2022-11-15T16:43:38.233Z,51.80
2022-11-15T16:46:28.166Z,58.63
2022-11-15T16:49:15.578Z,56.53
2022-11-15T16:52:02.432Z,57.33
2022-11-15T16:54:49.195Z,114.70
2022-11-15T16:57:37.632Z,65.50
2022-11-15T17:00:24.247Z,68.87
2022-11-15T17:03:11.155Z,50.27
2022-11-15T17:06:00.639Z,50.40
2022-11-15T17:08:47.452Z,70.10
2022-11-15T17:11:34.575Z,59.43
2022-11-15T17:14:22.873Z,64.63
2022-11-15T17:17:10.866Z,68.57
2022-11-15T17:19:57.718Z,57.00
2022-11-15T17:22:44.470Z,55.77
2022-11-15T17:25:31.129Z,53.53
2022-11-15T17:28:18.360Z,59.93
2022-11-15T17:31:12.822Z,52.63
2022-11-15T17:33:59.643Z,59.87
2022-11-15T17:36:46.494Z,50.23
2022-11-15T17:39:33.991Z,47.83
2022-11-15T17:42:22.119Z,50.53
2022-11-15T17:45:10.636Z,53.23
2022-11-15T17:47:59.785Z,59.23
2022-11-15T17:50:56.217Z,54.80
2022-11-15T17:53:45.118Z,48.50
2022-11-15T17:56:31.806Z,48.27
2022-11-15T17:59:21.400Z,60.00
2022-11-15T18:02:08.692Z,61.87
2022-11-15T18:04:56.818Z,52.53
2022-11-15T18:07:43.755Z,63.27
2022-11-15T18:10:30.594Z,77.00
2022-11-15T18:13:17.167Z,69.03
2022-11-15T18:16:04.710Z,47.60
2022-11-15T18:18:51.200Z,62.10
2022-11-15T18:21:56.388Z,61.73
2022-11-15T18:24:44.911Z,57.30
2022-11-15T18:27:31.759Z,49.90
2022-11-15T18:30:18.651Z,51.67
2022-11-15T18:33:05.211Z,55.30
2022-11-15T18:35:59.282Z,44.43
2022-11-15T18:38:47.698Z,56.87
2022-11-15T18:41:35.833Z,68.33
2022-11-15T18:44:22.562Z,57.40
2022-11-15T18:47:09.474Z,55.47
2022-11-15T18:49:58.470Z,56.33
2022-11-15T18:52:44.857Z,46.00
2022-11-15T18:55:33.044Z,52.07
2022-11-15T18:58:19.797Z,51.47
2022-11-15T19:01:08.181Z,63.80
2022-11-15T19:03:57.759Z,69.30
2022-11-15T19:06:47.097Z,77.23
2022-11-15T19:09:34.924Z,54.70
2022-11-15T19:12:23.170Z,51.90
2022-11-15T19:15:10.685Z,58.03
2022-11-15T19:17:57.096Z,57.03
2022-11-15T19:20:44.041Z,36.47
2022-11-15T19:23:34.716Z,34.53
2022-11-15T19:26:23.828Z,58.67
2022-11-15T19:29:12.215Z,39.30
2022-11-15T19:31:58.629Z,39.10
2022-11-15T19:34:45.740Z,40.87
2022-11-15T19:37:32.477Z,43.40
2022-11-15T19:40:19.396Z,37.40
2022-11-15T19:43:06.174Z,45.03
2022-11-15T19:46:00.952Z,46.50
2022-11-15T19:48:49.797Z,44.80
2022-11-15T19:51:36.778Z,36.40
2022-11-15T19:54:23.326Z,43.20
2022-11-15T19:57:10.205Z,44.67
2022-11-15T19:59:59.196Z,35.00
2022-11-15T20:02:52.524Z,52.10
2022-11-15T20:05:39.312Z,36.63
2022-11-15T20:08:27.292Z,47.53
2022-11-15T20:11:14.638Z,39.83
2022-11-15T20:14:03.009Z,40.47
2022-11-15T20:16:54.053Z,41.13
2022-11-15T20:19:42.210Z,35.53
2022-11-15T20:22:29.007Z,49.10
2022-11-15T20:25:16.525Z,39.47
2022-11-15T20:28:03.039Z,41.77
2022-11-15T20:30:53.312Z,33.53
2022-11-15T20:33:40.146Z,56.70
2022-11-15T20:36:28.970Z,38.67
2022-11-15T20:39:15.435Z,45.20
2022-11-15T20:42:02.103Z,49.73
2022-11-15T20:44:48.834Z,58.50
2022-11-15T20:47:35.668Z,41.03
2022-11-15T20:50:41.764Z,59.37
2022-11-15T20:53:31.606Z,42.80
2022-11-15T20:56:20.931Z,37.27
2022-11-15T20:59:07.765Z,50.17
2022-11-15T21:01:54.561Z,41.23
2022-11-15T21:04:41.400Z,49.00
2022-11-15T21:07:28.348Z,37.13
2022-11-15T21:10:33.730Z,47.20
2022-11-15T21:13:20.573Z,55.27
2022-11-15T21:16:08.085Z,56.73
2022-11-15T21:18:54.982Z,56.37
2022-11-15T21:21:41.931Z,43.47
2022-11-15T21:24:28.655Z,60.30
2022-11-15T21:27:16.555Z,68.27
2022-11-15T21:30:03.484Z,46.40
2022-11-15T21:32:50.070Z,56.37
2022-11-15T21:35:36.890Z,65.17
2022-11-15T21:38:24.737Z,39.30
2022-11-15T21:41:11.527Z,54.27
2022-11-15T21:44:00.562Z,47.03
2022-11-15T21:46:48.751Z,55.37
2022-11-15T21:49:35.860Z,67.43
2022-11-15T21:52:22.634Z,64.67
2022-11-15T21:55:10.444Z,45.23
2022-11-15T21:57:57.726Z,73.47
2022-11-15T22:01:03.697Z,50.87
2022-11-15T22:03:50.388Z,52.90
2022-11-15T22:06:41.120Z,49.23
2022-11-15T22:09:28.567Z,57.10
2022-11-15T22:12:15.180Z,44.13
2022-11-15T22:15:01.972Z,75.57
2022-11-15T22:18:01.863Z,70.10
2022-11-15T22:20:54.675Z,48.33
2022-11-15T22:23:42.528Z,42.57
2022-11-15T22:26:29.045Z,54.10
2022-11-15T22:29:15.775Z,85.17
2022-11-15T22:32:02.531Z,57.37
2022-11-15T22:34:50.607Z,62.60
2022-11-15T22:37:37.483Z,56.50
2022-11-15T22:40:24.546Z,50.93
2022-11-15T22:43:12.960Z,54.30
2022-11-15T22:46:00.747Z,44.70
2022-11-15T22:48:47.342Z,56.90
2022-11-15T22:51:35.787Z,52.37
2022-11-15T22:54:22.245Z,51.80
2022-11-15T22:57:08.951Z,41.37
2022-11-15T22:59:55.755Z,37.33
2022-11-15T23:02:42.635Z,60.70
2022-11-15T23:05:29.661Z,50.90
2022-11-15T23:08:18.447Z,39.43
2022-11-15T23:11:23.292Z,57.17
2022-11-15T23:14:10.657Z,45.67
2022-11-15T23:16:57.042Z,45.73
2022-11-15T23:19:43.917Z,52.77
2022-11-15T23:22:56.384Z,40.60
2022-11-15T23:25:45.398Z,42.67
2022-11-15T23:28:34.602Z,39.27
2022-11-15T23:31:38.609Z,39.40
2022-11-15T23:34:25.870Z,48.37
2022-11-15T23:37:15.231Z,42.87
2022-11-15T23:40:01.871Z,37.87
2022-11-15T23:42:50.049Z,41.67
2022-11-15T23:45:39.003Z,45.70
2022-11-15T23:48:27.564Z,48.70
2022-11-15T23:51:14.556Z,46.77
2022-11-15T23:54:01.223Z,58.23
2022-11-15T23:56:47.923Z,47.80
2022-11-15T23:59:36.184Z,48.70
